createdAt,value
2018-07-01T00:00:37.922Z,94.70
2018-07-01T00:03:41.549Z,94.90
2018-07-01T00:06:45.154Z,95.10
2018-07-01T00:09:48.848Z,95.40
2018-07-01T00:12:52.738Z,95.60
2018-07-01T00:15:56.549Z,95.80
2018-07-01T00:19:00.143Z,96.00
2018-07-01T00:22:03.773Z,96.10
2018-07-01T00:25:07.773Z,96.30
2018-07-01T00:28:11.393Z,96.60
2018-07-01T00:31:15.082Z,96.70
2018-07-01T00:34:18.708Z,97.10
2018-07-01T00:37:22.345Z,97.40
2018-07-01T00:40:25.978Z,97.70
2018-07-01T00:43:29.570Z,98.10
2018-07-01T00:46:33.210Z,98.30
2018-07-01T00:49:36.809Z,98.70
2018-07-01T00:52:40.421Z,98.90
2018-07-01T00:55:44.087Z,99.10
2018-07-01T00:58:47.807Z,99.40
2018-07-01T01:01:51.507Z,99.90
2018-07-01T01:04:55.150Z,99.90
2018-07-01T01:11:02.629Z,99.90
2018-07-01T01:14:06.467Z,99.90
2018-07-01T01:17:10.074Z,99.90
2018-07-01T01:23:17.166Z,99.90
2018-07-01T01:29:24.155Z,99.90
2018-07-01T01:32:27.749Z,99.90
2018-07-01T01:35:31.391Z,99.90
2018-07-01T01:38:36.969Z,99.90
2018-07-01T01:42:17.882Z,99.90
2018-07-01T01:45:32.001Z,99.90
2018-07-01T01:48:42.946Z,99.90
2018-07-01T01:51:50.814Z,99.90
2018-07-01T02:05:27.233Z,99.90
2018-07-01T02:08:36.289Z,99.90
2018-07-01T02:11:43.406Z,99.90
2018-07-01T02:14:51.233Z,99.90
2018-07-01T02:17:55.735Z,99.90
2018-07-01T02:20:59.368Z,99.90
2018-07-01T02:24:07.151Z,99.90
2018-07-01T02:27:11.352Z,99.90
2018-07-01T02:30:14.952Z,99.90
2018-07-01T02:33:18.584Z,99.90
2018-07-01T02:36:22.195Z,99.90
2018-07-01T02:39:26.076Z,99.90
2018-07-01T02:42:29.671Z,99.90
2018-07-01T02:45:33.372Z,99.90
2018-07-01T02:48:36.975Z,99.90
2018-07-01T02:51:40.603Z,99.90
2018-07-01T02:54:44.287Z,99.90
2018-07-01T02:57:47.907Z,99.90
2018-07-01T03:00:51.510Z,99.90
2018-07-01T03:03:55.136Z,99.90
2018-07-01T03:10:02.647Z,99.90
2018-07-01T03:16:09.606Z,99.90
2018-07-01T03:19:13.299Z,99.90
2018-07-01T03:22:17.007Z,99.90
2018-07-01T03:25:21.206Z,99.90
2018-07-01T03:28:25.018Z,99.90
2018-07-01T03:31:28.629Z,99.90
2018-07-01T03:34:32.539Z,99.90
2018-07-01T03:37:36.151Z,99.90
2018-07-01T03:40:39.957Z,99.70
2018-07-01T03:43:43.756Z,98.70
2018-07-01T03:46:47.559Z,98.40
2018-07-01T03:49:51.162Z,97.90
2018-07-01T03:52:55.055Z,97.60
2018-07-01T03:55:58.678Z,96.50
2018-07-01T03:59:02.673Z,95.70
2018-07-01T04:02:06.311Z,95.30
2018-07-01T04:11:16.879Z,94.90
2018-07-01T04:14:20.595Z,95.20
2018-07-01T04:17:24.243Z,94.70
2018-07-01T04:23:31.288Z,93.50
2018-07-01T04:26:34.912Z,93.00
2018-07-01T04:29:38.576Z,93.10
2018-07-01T04:32:42.198Z,92.50
2018-07-01T04:35:45.818Z,92.00
2018-07-01T04:38:49.419Z,91.70
2018-07-01T04:41:53.662Z,91.70
2018-07-01T04:48:00.689Z,90.60
2018-07-01T04:51:04.356Z,90.80
2018-07-01T04:54:08.003Z,90.80
2018-07-01T04:57:11.641Z,90.80
2018-07-01T05:00:15.337Z,90.10
2018-07-01T05:03:19.431Z,90.50
2018-07-01T05:06:23.101Z,91.10
2018-07-01T05:12:30.171Z,89.40
2018-07-01T05:15:33.836Z,90.50
2018-07-01T05:18:37.539Z,90.30
2018-07-01T05:21:41.175Z,89.90
2018-07-01T05:24:44.859Z,88.30
2018-07-01T05:27:48.512Z,86.80
2018-07-01T05:33:55.967Z,88.50
2018-07-01T05:36:59.606Z,86.20
2018-07-01T05:43:06.570Z,86.50
2018-07-01T05:46:10.207Z,87.50
2018-07-01T05:49:13.836Z,87.20
2018-07-01T05:52:17.652Z,90.00
2018-07-01T05:55:21.292Z,87.20
2018-07-01T05:58:24.950Z,88.10
2018-07-01T06:01:28.621Z,85.50
2018-07-01T06:04:32.272Z,85.00
2018-07-01T06:07:35.913Z,83.70
2018-07-01T06:10:39.522Z,82.30
2018-07-01T06:13:48.727Z,81.70
2018-07-01T06:16:57.966Z,82.60
2018-07-01T06:20:07.894Z,83.50
2018-07-01T06:23:17.103Z,84.10
2018-07-01T06:29:35.484Z,87.20
2018-07-01T06:32:44.820Z,87.50
2018-07-01T06:39:03.051Z,90.30
2018-07-01T06:42:12.391Z,87.80
2018-07-01T06:51:40.519Z,80.80
2018-07-01T06:54:49.843Z,84.50
2018-07-01T06:57:59.194Z,84.30
2018-07-01T07:01:08.436Z,80.80
2018-07-01T07:04:17.806Z,82.00
2018-07-01T07:10:36.377Z,86.20
2018-07-01T07:16:54.883Z,87.00
2018-07-01T07:20:04.139Z,84.70
2018-07-01T07:23:13.252Z,84.00
2018-07-01T07:26:22.579Z,85.00
2018-07-01T07:29:31.908Z,86.30
2018-07-01T07:32:41.182Z,84.90
2018-07-01T07:35:50.281Z,83.30
2018-07-01T07:38:59.719Z,84.80
2018-07-01T07:42:08.768Z,84.40
2018-07-01T07:45:17.987Z,81.10
2018-07-01T07:48:27.111Z,78.80
2018-07-01T07:54:45.278Z,78.80
2018-07-01T07:57:54.490Z,81.10
2018-07-01T08:01:03.847Z,82.40
2018-07-01T08:04:13.314Z,85.00
2018-07-01T08:13:40.875Z,79.90
2018-07-01T08:16:50.515Z,76.60
2018-07-01T08:19:59.671Z,75.80
2018-07-01T08:23:08.861Z,73.80
2018-07-01T08:26:18.095Z,73.00
2018-07-01T08:29:27.221Z,73.30
2018-07-01T08:32:36.486Z,70.90
2018-07-01T08:35:45.760Z,72.30
2018-07-01T08:38:55.097Z,75.20
2018-07-01T08:42:21.862Z,74.90
2018-07-01T08:45:31.211Z,76.70
2018-07-01T08:51:49.659Z,75.60
2018-07-01T08:54:59.055Z,75.00
2018-07-01T08:58:08.294Z,73.10
2018-07-01T09:01:18.222Z,74.00
2018-07-01T09:04:27.467Z,72.40
2018-07-01T09:07:36.814Z,70.90
2018-07-01T09:10:46.009Z,69.80
2018-07-01T09:13:55.567Z,71.00
2018-07-01T09:17:05.010Z,69.10
2018-07-01T09:20:14.350Z,67.10
2018-07-01T09:23:23.690Z,69.30
2018-07-01T09:26:32.982Z,67.50
2018-07-01T09:29:47.906Z,66.70
2018-07-01T09:32:57.067Z,68.00
2018-07-01T09:36:06.350Z,68.70
2018-07-01T09:39:15.938Z,68.90
2018-07-01T09:42:25.299Z,71.10
2018-07-01T09:45:34.732Z,70.20
2018-07-01T09:51:53.130Z,67.30
2018-07-01T09:55:04.509Z,67.10
2018-07-01T10:01:23.063Z,68.50
2018-07-01T10:04:32.416Z,70.80
2018-07-01T10:07:41.522Z,71.70
2018-07-01T10:10:51.767Z,72.10
2018-07-01T10:17:10.748Z,69.40
2018-07-01T10:23:29.218Z,67.00
2018-07-01T10:26:38.725Z,67.00
2018-07-01T10:32:57.211Z,66.40
2018-07-01T10:36:06.371Z,65.80
2018-07-01T10:39:16.652Z,64.30
2018-07-01T10:45:34.978Z,62.30
2018-07-01T10:51:53.459Z,62.50
2018-07-01T10:58:11.906Z,62.60
2018-07-01T11:01:15.705Z,65.70
2018-07-01T11:04:19.695Z,66.50
2018-07-01T11:07:23.367Z,66.20
2018-07-01T11:10:27.032Z,65.80
2018-07-01T11:13:30.677Z,66.10
2018-07-01T11:16:34.331Z,66.40
2018-07-01T11:19:38.126Z,65.20
2018-07-01T11:22:41.819Z,64.60
2018-07-01T11:25:46.508Z,63.80
2018-07-01T11:31:53.670Z,65.70
2018-07-01T11:34:57.389Z,65.10
2018-07-01T11:38:01.078Z,64.10
2018-07-01T11:41:04.735Z,63.70
2018-07-01T11:44:08.354Z,63.10
2018-07-01T11:47:12.004Z,65.20
2018-07-01T11:50:15.691Z,63.50
2018-07-01T11:53:19.352Z,63.10
2018-07-01T11:56:22.988Z,63.30
2018-07-01T11:59:26.711Z,64.60
2018-07-01T12:02:30.450Z,63.90
2018-07-01T12:05:34.220Z,62.40
2018-07-01T12:08:37.743Z,59.20
2018-07-01T12:14:44.805Z,59.50
2018-07-01T12:17:48.461Z,58.80
2018-07-01T12:23:55.446Z,60.80
2018-07-01T12:26:59.110Z,60.60
2018-07-01T12:30:02.827Z,60.70
2018-07-01T12:33:06.523Z,60.00
2018-07-01T12:36:10.478Z,59.40
2018-07-01T12:39:14.074Z,58.80
2018-07-01T12:45:21.884Z,57.30
2018-07-01T12:48:25.660Z,58.40
2018-07-01T12:51:29.357Z,58.20
2018-07-01T12:54:33.071Z,57.20
2018-07-01T12:57:36.815Z,58.00
2018-07-01T13:00:40.428Z,58.50
2018-07-01T13:03:44.082Z,59.20
2018-07-01T13:06:47.782Z,60.50
2018-07-01T13:09:51.490Z,60.90
2018-07-01T13:12:55.096Z,60.00
2018-07-01T13:15:58.760Z,60.00
2018-07-01T13:19:02.367Z,60.40
2018-07-01T13:22:06.251Z,60.50
2018-07-01T13:25:09.903Z,60.60
2018-07-01T13:28:13.603Z,60.70
2018-07-01T13:31:17.237Z,61.90
2018-07-01T13:34:21.119Z,63.10
2018-07-01T13:37:24.745Z,64.00
2018-07-01T13:40:28.364Z,63.80
2018-07-01T13:49:38.981Z,63.40
2018-07-01T13:52:42.670Z,63.60
2018-07-01T13:55:46.276Z,65.60
2018-07-01T14:01:53.681Z,67.90
2018-07-01T14:04:57.387Z,67.50
2018-07-01T14:08:00.981Z,67.60
2018-07-01T14:14:08.286Z,69.70
2018-07-01T14:17:11.957Z,69.30
2018-07-01T14:20:15.583Z,68.50
2018-07-01T14:23:19.300Z,68.90
2018-07-01T14:26:22.963Z,68.20
2018-07-01T14:29:26.659Z,67.90
2018-07-01T14:32:30.295Z,68.10
2018-07-01T14:35:34.059Z,67.90
2018-07-01T14:38:37.582Z,68.40
2018-07-01T14:41:41.375Z,69.20
2018-07-01T14:44:44.990Z,68.00
2018-07-01T14:47:48.638Z,68.80
2018-07-01T14:50:52.280Z,69.40
2018-07-01T14:53:55.982Z,71.30
2018-07-01T14:56:59.633Z,71.60
2018-07-01T15:00:03.307Z,72.10
2018-07-01T15:03:07.046Z,72.40
2018-07-01T15:06:10.602Z,73.00
2018-07-01T15:09:14.282Z,73.90
2018-07-01T15:12:17.888Z,72.80
2018-07-01T15:15:21.545Z,72.20
2018-07-01T15:21:28.755Z,70.80
2018-07-01T15:24:32.411Z,70.80
2018-07-01T15:27:36.042Z,70.00
2018-07-01T15:30:39.649Z,70.80
2018-07-01T15:33:43.366Z,70.90
2018-07-01T15:36:46.990Z,70.60
2018-07-01T15:39:50.671Z,69.80
2018-07-01T15:42:54.287Z,71.10
2018-07-01T15:45:57.943Z,71.60
2018-07-01T15:49:01.578Z,71.50
2018-07-01T15:52:05.357Z,71.90
2018-07-01T15:55:09.012Z,71.80
2018-07-01T15:58:12.622Z,72.80
2018-07-01T16:01:16.292Z,72.20
2018-07-01T16:04:19.954Z,71.40
2018-07-01T16:07:23.597Z,70.60
2018-07-01T16:10:27.255Z,71.40
2018-07-01T16:13:31.071Z,70.70
2018-07-01T16:16:34.755Z,70.20
2018-07-01T16:19:38.400Z,69.70
2018-07-01T16:22:42.043Z,70.30
2018-07-01T16:25:51.201Z,70.40
2018-07-01T16:29:00.555Z,70.60
2018-07-01T16:32:04.880Z,70.70
2018-07-01T16:35:08.515Z,71.50
2018-07-01T16:38:12.168Z,72.00
2018-07-01T16:41:15.802Z,71.50
2018-07-01T16:44:19.414Z,71.10
2018-07-01T16:50:26.666Z,69.20
2018-07-01T16:53:30.270Z,68.70
2018-07-01T16:56:33.913Z,68.70
2018-07-01T16:59:37.542Z,68.30
2018-07-01T17:02:41.163Z,69.00
2018-07-01T17:05:44.796Z,69.40
2018-07-01T17:08:48.440Z,69.60
2018-07-01T17:11:52.089Z,69.50
2018-07-01T17:14:55.919Z,69.30
2018-07-01T17:21:03.043Z,69.90
2018-07-01T17:24:06.701Z,70.20
2018-07-01T17:27:10.322Z,69.70
2018-07-01T17:30:13.949Z,69.40
2018-07-01T17:33:21.914Z,69.70
2018-07-01T17:36:25.599Z,69.90
2018-07-01T17:39:29.213Z,70.60
2018-07-01T17:42:32.839Z,71.00
2018-07-01T17:45:36.609Z,71.90
2018-07-01T17:48:40.268Z,72.70
2018-07-01T17:51:43.849Z,72.50
2018-07-01T17:54:47.498Z,73.50
2018-07-01T17:57:51.131Z,73.80
2018-07-01T18:00:55.080Z,73.80
2018-07-01T18:07:02.059Z,76.60
2018-07-01T18:10:05.787Z,79.10
2018-07-01T18:13:09.491Z,79.70
2018-07-01T18:16:13.183Z,80.00
2018-07-01T18:22:35.927Z,81.40
2018-07-01T18:25:23.934Z,80.20
2018-07-01T18:28:37.864Z,80.40
2018-07-01T18:31:31.929Z,81.00
2018-07-01T18:34:35.523Z,81.40
2018-07-01T18:40:43.112Z,81.80
2018-07-01T18:43:46.739Z,82.20
2018-07-01T18:49:53.832Z,82.00
2018-07-01T18:52:57.643Z,82.10
2018-07-01T18:56:01.262Z,81.90
2018-07-01T18:59:04.885Z,81.30
2018-07-01T19:02:08.727Z,81.50
2018-07-01T19:05:12.652Z,81.40
2018-07-01T19:11:19.714Z,81.30
2018-07-01T19:14:23.310Z,80.50
2018-07-01T19:17:27.022Z,80.60
2018-07-01T19:20:30.672Z,80.50
2018-07-01T19:23:34.309Z,80.20
2018-07-01T19:32:45.435Z,79.80
2018-07-01T19:35:49.039Z,79.90
2018-07-01T19:38:52.671Z,79.00
2018-07-01T19:41:56.352Z,78.60
2018-07-01T19:45:00.031Z,78.30
2018-07-01T19:48:03.667Z,78.40
2018-07-01T19:51:07.355Z,78.00
2018-07-01T19:54:11.004Z,78.80
2018-07-01T20:00:18.656Z,78.70
2018-07-01T20:03:22.313Z,78.80
2018-07-01T20:06:26.226Z,79.00
2018-07-01T20:09:29.839Z,79.30
2018-07-01T20:15:37.001Z,79.40
2018-07-01T20:18:40.629Z,79.50
2018-07-01T20:21:44.346Z,80.10
2018-07-01T20:24:47.999Z,80.60
2018-07-01T20:27:51.622Z,81.40
2018-07-01T20:30:55.223Z,82.30
2018-07-01T20:33:58.851Z,84.00
2018-07-01T20:40:06.159Z,85.70
2018-07-01T20:43:10.687Z,87.40
2018-07-01T20:46:14.345Z,87.90
2018-07-01T20:49:18.307Z,88.40
2018-07-01T20:52:22.053Z,89.60
2018-07-01T20:55:25.753Z,90.30
2018-07-01T20:58:29.405Z,90.60
2018-07-01T21:01:33.064Z,91.20
2018-07-01T21:04:36.767Z,91.50
2018-07-01T21:07:40.402Z,91.70
2018-07-01T21:10:44.018Z,92.00
2018-07-01T21:13:47.643Z,92.20
2018-07-01T21:16:51.363Z,92.50
2018-07-01T21:19:55.203Z,92.80
2018-07-01T21:22:58.818Z,93.00
2018-07-01T21:26:02.540Z,93.20
2018-07-01T21:29:06.555Z,93.50
2018-07-01T21:35:13.644Z,94.00
2018-07-01T21:38:17.394Z,94.20
2018-07-01T21:41:21.007Z,94.50
2018-07-01T21:44:24.632Z,94.70
2018-07-01T21:47:28.718Z,94.90
2018-07-01T21:50:32.359Z,95.10
2018-07-01T21:53:36.030Z,95.40
2018-07-01T21:56:39.670Z,95.50
2018-07-01T21:59:43.538Z,95.90
2018-07-01T22:02:47.215Z,96.10
2018-07-01T22:05:50.833Z,96.20
2018-07-01T22:08:55.034Z,96.50
2018-07-01T22:12:10.338Z,96.50
2018-07-01T22:15:26.755Z,96.70
2018-07-01T22:18:30.523Z,96.90
2018-07-01T22:21:34.150Z,97.10
2018-07-01T22:24:38.693Z,97.20
2018-07-01T22:27:42.331Z,97.40
2018-07-01T22:30:45.974Z,97.70
2018-07-01T22:33:49.602Z,97.70
2018-07-01T22:36:53.682Z,97.90
2018-07-01T22:39:57.307Z,98.10
2018-07-01T22:43:00.990Z,98.20
2018-07-01T22:46:04.698Z,98.30
2018-07-01T22:49:08.332Z,98.50
2018-07-01T22:52:11.942Z,98.60
2018-07-01T22:58:18.925Z,98.70
2018-07-01T23:01:22.567Z,98.80
2018-07-01T23:04:26.193Z,98.90
2018-07-01T23:07:29.834Z,98.90
2018-07-01T23:10:33.719Z,99.00
2018-07-01T23:13:37.407Z,99.10
2018-07-01T23:16:41.039Z,99.20
2018-07-01T23:19:44.631Z,99.30
2018-07-01T23:22:48.351Z,99.40
2018-07-01T23:25:51.958Z,99.50
2018-07-01T23:28:55.559Z,99.60
2018-07-01T23:31:59.189Z,99.70
2018-07-01T23:35:02.798Z,99.80
2018-07-01T23:38:06.422Z,99.90
2018-07-01T23:41:10.147Z,99.90
2018-07-01T23:44:13.762Z,99.90
2018-07-01T23:47:17.403Z,99.90
2018-07-01T23:53:24.514Z,99.90
2018-07-01T23:56:28.155Z,99.90
2018-07-01T23:59:31.835Z,99.90
